Impacts TAF Board INFO
FOR SITUATIONAL AWARENESS. NOT TO BE USED FOR FLIGHT PLANNING PURPOSES.
IDs:

KBWI - Baltimore-Washington, MD, US

Issued at 2322 UTC 12 Dec 2017
Updated at 0336 UTC 13 Dec 2017
Potential Impact None Slight Moderate High
Time<<13/16Z 13/17Z 13/18Z 13/19Z 13/20Z 13/21Z 13/22Z 13/23Z 14/00Z 14/01Z 14/02Z 14/03Z 14/04Z>>
Type PRVL PRVL PRVL PRVL PRVL PRVL PRVL PRVL PRVL PRVL PRVL PRVL PRVL
VIS >6 >6 >6 >6 >6 >6 >6 >6 >6 >6 >6 >6 >6
CIG 110 110 110 110 110 -- -- 60 60 60 70 70 70
Cover BKN BKN BKN BKN BKN SCT SCT BKN BKN BKN BKN BKN BKN
FltCat VFR VFR VFR VFR VFR VFR VFR VFR VFR VFR VFR VFR VFR
WX -- -- -- -- -- -- -- -- -- -- -- -- --
WDir 300 300 300 300 300 270 270 260 260 260 230 230 230
WSpd 17 17 17 17 17 12 12 8 8 8 4 4 4
WGst 26 26 26 26 26 19 19 -- -- -- -- -- --

Raw TAF
KBWI 122322Z 1300/1406 30017G26KT P6SM FEW050 BKN110
  FM132100 27012G19KT P6SM FEW080 SCT090
  FM132300 26008KT P6SM BKN060 BKN070
  FM140200 23004KT P6SM BKN070


METAR Board
Radar Display
Forecast Discussion

FOR SITUATIONAL AWARENESS. NOT TO BE USED FOR FLIGHT PLANNING PURPOSES.